Time;durP1;ratioP1;P1;durP2;ratioP2;P2;SDS_P1;SDS_P2;PMS_P1;PMS_P2;Temp;Humidity;BMP_temperature;BMP_pressure;BME280_temperature;BME280_humidity;BME280_pressure;Samples;Min_cycle;Max_cycle;Signal;HPM_P1;HPM_P2
2023/06/06 00:00:21;;;;;;;0.10;0.10;;;18.80;99.90;;;;;;5045657;28;20647;-80
2023/06/06 00:02:46;;;;;;;0.10;0.10;;;18.80;99.90;;;;;;5045074;28;20182;-80
2023/06/06 00:05:13;;;;;;;0.10;0.10;;;18.80;99.90;;;;;;5045376;28;20227;-80
2023/06/06 00:07:43;;;;;;;0.10;0.10;;;18.80;99.90;;;;;;5046949;28;20638;-80
2023/06/06 00:10:14;;;;;;;0.10;0.10;;;18.80;99.90;;;;;;5044701;28;20205;-80
2023/06/06 00:12:43;;;;;;;0.10;0.10;;;18.70;99.90;;;;;;5044930;28;20765;-80
2023/06/06 00:15:12;;;;;;;0.10;0.10;;;18.70;99.90;;;;;;5044922;28;20256;-80
2023/06/06 00:17:39;;;;;;;0.10;0.10;;;18.70;99.90;;;;;;5046229;28;20649;-80
2023/06/06 00:20:08;;;;;;;0.10;0.10;;;18.70;99.90;;;;;;5046785;28;20189;-80
2023/06/06 00:22:35;;;;;;;0.10;0.10;;;18.70;99.90;;;;;;5044784;28;20552;-80
2023/06/06 00:25:00;;;;;;;0.10;0.10;;;18.60;99.90;;;;;;5052666;28;20186;-80
2023/06/06 00:27:26;;;;;;;0.10;0.10;;;18.60;99.90;;;;;;5043982;28;20658;-80
2023/06/06 00:29:51;;;;;;;0.10;0.10;;;18.50;99.90;;;;;;5045007;28;20272;-80
2023/06/06 00:32:17;;;;;;;0.10;0.10;;;18.60;99.90;;;;;;5044913;28;20292;-80
2023/06/06 00:34:42;;;;;;;0.10;0.10;;;18.50;99.90;;;;;;5044901;28;20668;-80
2023/06/06 00:37:08;;;;;;;0.10;0.10;;;18.40;99.90;;;;;;5046619;28;20205;-80
2023/06/06 00:39:34;;;;;;;0.10;0.10;;;18.30;99.90;;;;;;5044607;28;20738;-80
2023/06/06 00:41:59;;;;;;;0.10;0.10;;;18.40;99.90;;;;;;5044880;28;20184;-80
2023/06/06 00:44:25;;;;;;;0.10;0.10;;;18.30;99.90;;;;;;5044941;28;20192;-80
2023/06/06 00:46:50;;;;;;;0.10;0.10;;;18.30;99.90;;;;;;5044887;28;20208;-80
2023/06/06 00:49:17;;;;;;;0.10;0.10;;;18.30;99.90;;;;;;5045958;28;20205;-80
2023/06/06 00:51:44;;;;;;;0.10;0.10;;;18.10;99.90;;;;;;5044112;28;20181;-80
2023/06/06 00:54:14;;;;;;;0.10;0.10;;;18.10;99.90;;;;;;5045530;28;20209;-80
2023/06/06 00:56:43;;;;;;;0.10;0.10;;;18.10;99.90;;;;;;5044137;28;20254;-80
2023/06/06 00:59:10;;;;;;;0.10;0.10;;;18.10;99.90;;;;;;5044665;28;20204;-80
2023/06/06 01:01:38;;;;;;;0.10;0.10;;;18.10;99.90;;;;;;5044368;28;20186;-80
2023/06/06 01:04:07;;;;;;;0.10;0.10;;;18.00;99.90;;;;;;5044629;28;20651;-80
2023/06/06 01:06:35;;;;;;;0.10;0.10;;;17.90;99.90;;;;;;5045132;28;20308;-80
2023/06/06 01:09:06;;;;;;;0.10;0.10;;;17.80;99.90;;;;;;5044015;28;20602;-80
2023/06/06 01:11:39;;;;;;;0.10;0.10;;;17.70;99.90;;;;;;5043350;28;20192;-80
2023/06/06 01:14:21;;;;;;;0.10;0.10;;;17.70;99.90;;;;;;5045821;28;20229;-80
2023/06/06 01:16:52;;;;;;;0.10;0.10;;;17.60;99.90;;;;;;5043929;28;20202;-80
2023/06/06 01:19:20;;;;;;;0.10;0.10;;;17.50;99.90;;;;;;5044338;28;20192;-80
2023/06/06 01:21:46;;;;;;;0.10;0.10;;;17.40;99.90;;;;;;5044608;28;20182;-80
2023/06/06 01:24:12;;;;;;;0.10;0.10;;;17.40;99.90;;;;;;5044561;28;20232;-80
2023/06/06 01:26:37;;;;;;;4.70;4.47;;;17.40;99.90;;;;;;5043708;28;20208;-80
2023/06/06 01:29:03;;;;;;;0.10;0.10;;;17.30;99.90;;;;;;5043617;28;20182;-80
2023/06/06 01:31:37;;;;;;;0.10;0.10;;;17.30;99.90;;;;;;5045293;28;20276;-80
2023/06/06 01:34:33;;;;;;;0.10;0.10;;;17.30;99.90;;;;;;5044994;28;20284;-80
2023/06/06 01:37:11;;;;;;;0.07;0.07;;;17.40;99.90;;;;;;5044065;28;20255;-80
2023/06/06 01:39:40;;;;;;;0.10;0.10;;;17.30;99.90;;;;;;5043855;28;20181;-80
2023/06/06 01:42:06;;;;;;;0.10;0.10;;;17.30;99.90;;;;;;5045460;28;20177;-80
2023/06/06 01:44:34;;;;;;;0.10;0.10;;;17.30;99.90;;;;;;5045038;28;20647;-80
2023/06/06 01:47:01;;;;;;;0.10;0.10;;;17.30;99.90;;;;;;5044673;28;20197;-80
2023/06/06 01:49:27;;;;;;;0.10;0.10;;;17.20;99.90;;;;;;5044023;28;20615;-79
2023/06/06 01:51:55;;;;;;;0.10;0.10;;;17.20;99.90;;;;;;5042573;28;20216;-80
2023/06/06 01:54:21;;;;;;;0.10;0.10;;;17.20;99.90;;;;;;5044963;28;20204;-80
2023/06/06 01:56:46;;;;;;;0.10;0.10;;;17.20;99.90;;;;;;5043771;28;20201;-80
2023/06/06 01:59:12;;;;;;;0.10;0.10;;;17.20;99.90;;;;;;5043731;28;20181;-80
2023/06/06 02:01:37;;;;;;;0.00;0.00;;;17.20;99.90;;;;;;5043455;28;20182;-80
2023/06/06 02:04:03;;;;;;;0.30;0.30;;;17.20;99.90;;;;;;5044288;28;20244;-80
2023/06/06 02:06:29;;;;;;;11.50;10.47;;;17.10;99.90;;;;;;5043850;28;20217;-80
2023/06/06 02:08:55;;;;;;;0.10;0.10;;;17.10;99.90;;;;;;5043903;28;20260;-80
2023/06/06 02:11:23;;;;;;;0.10;0.10;;;17.10;99.90;;;;;;5044688;28;20264;-80
2023/06/06 02:13:50;;;;;;;0.10;0.10;;;17.10;99.90;;;;;;5042895;28;20542;-80
2023/06/06 02:16:17;;;;;;;0.10;0.10;;;17.10;99.90;;;;;;5045033;28;20225;-80
2023/06/06 02:18:44;;;;;;;0.10;0.10;;;17.00;99.90;;;;;;5044047;28;20194;-80
2023/06/06 02:21:11;;;;;;;0.10;0.10;;;17.00;99.90;;;;;;5043308;28;20823;-80
2023/06/06 02:23:36;;;;;;;0.10;0.10;;;17.00;99.90;;;;;;5042708;28;20276;-80
2023/06/06 02:26:03;;;;;;;0.10;0.10;;;16.90;99.90;;;;;;5043646;28;20709;-80
2023/06/06 02:28:30;;;;;;;0.10;0.10;;;16.80;99.90;;;;;;5043243;28;20192;-80
2023/06/06 02:30:56;;;;;;;0.10;0.10;;;16.70;99.90;;;;;;5043259;28;20182;-80
2023/06/06 02:33:22;;;;;;;0.10;0.10;;;16.60;99.90;;;;;;5053920;28;20201;-80
2023/06/06 02:35:47;;;;;;;0.10;0.10;;;16.50;99.90;;;;;;5046243;28;20233;-80
2023/06/06 02:38:13;;;;;;;0.10;0.10;;;16.50;99.90;;;;;;5048320;28;20619;-80
2023/06/06 02:40:38;;;;;;;0.10;0.10;;;16.50;99.90;;;;;;5046326;28;20185;-80
2023/06/06 02:43:04;;;;;;;0.10;0.10;;;16.40;99.90;;;;;;5046511;28;20643;-80
2023/06/06 02:45:30;;;;;;;0.10;0.10;;;16.40;99.90;;;;;;5046642;28;20284;-80
2023/06/06 02:47:56;;;;;;;0.10;0.10;;;16.40;99.90;;;;;;5046399;28;20186;-80
2023/06/06 02:50:21;;;;;;;0.10;0.10;;;16.40;99.90;;;;;;5047897;28;20216;-80
2023/06/06 02:52:47;;;;;;;0.10;0.10;;;16.40;99.90;;;;;;5045776;28;20208;-80
2023/06/06 02:55:13;;;;;;;0.10;0.10;;;16.40;99.90;;;;;;5047841;28;20201;-80
2023/06/06 02:57:38;;;;;;;0.10;0.10;;;16.40;99.90;;;;;;5046263;28;20232;-80
2023/06/06 03:00:08;;;;;;;0.10;0.10;;;16.30;99.90;;;;;;5045059;28;20186;-80
2023/06/06 03:02:34;;;;;;;0.10;0.10;;;16.20;99.90;;;;;;5045668;28;20185;-80
2023/06/06 03:05:00;;;;;;;0.10;0.10;;;16.20;99.90;;;;;;5046759;28;20292;-80
2023/06/06 03:07:26;;;;;;;0.10;0.10;;;16.10;99.90;;;;;;5046534;28;20304;-80
2023/06/06 03:09:52;;;;;;;0.10;0.10;;;16.10;99.90;;;;;;5047942;28;20541;-80
2023/06/06 03:12:17;;;;;;;0.10;0.10;;;16.10;99.90;;;;;;5045982;28;20189;-80
2023/06/06 03:14:43;;;;;;;0.10;0.10;;;16.10;99.90;;;;;;5046468;28;20185;-80
2023/06/06 03:17:08;;;;;;;0.10;0.10;;;16.10;99.90;;;;;;5045923;28;20201;-80
2023/06/06 03:19:35;;;;;;;0.10;0.10;;;16.10;99.90;;;;;;5047647;28;20600;-80
2023/06/06 03:22:00;;;;;;;0.10;0.10;;;16.20;99.90;;;;;;5047224;28;20177;-80
2023/06/06 03:24:28;;;;;;;0.10;0.10;;;16.40;99.90;;;;;;5047478;28;21055;-80
2023/06/06 03:26:54;;;;;;;0.10;0.10;;;16.40;99.90;;;;;;5046996;28;20694;-80
2023/06/06 03:29:20;;;;;;;0.10;0.10;;;16.30;99.90;;;;;;5046295;28;20173;-80
2023/06/06 03:31:48;;;;;;;0.10;0.10;;;16.20;99.90;;;;;;5046364;28;20189;-80
2023/06/06 03:34:14;;;;;;;0.10;0.10;;;16.20;99.90;;;;;;5049087;28;20228;-80
2023/06/06 03:36:40;;;;;;;0.10;0.10;;;16.20;99.90;;;;;;5046417;28;20229;-80
2023/06/06 03:39:05;;;;;;;0.10;0.10;;;16.40;99.90;;;;;;5046863;28;20192;-80
2023/06/06 03:41:31;;;;;;;0.10;0.10;;;16.70;99.90;;;;;;5048152;28;20192;-80
2023/06/06 03:44:00;;;;;;;0.10;0.10;;;17.00;99.90;;;;;;5047122;28;20264;-80
2023/06/06 03:46:25;;;;;;;0.00;0.00;;;17.30;99.90;;;;;;5047317;28;20206;-79
2023/06/06 03:48:51;;;;;;;0.10;0.10;;;17.30;99.90;;;;;;5046265;28;20188;-80
2023/06/06 03:51:17;;;;;;;0.10;0.10;;;17.40;99.90;;;;;;5045574;28;20288;-80
2023/06/06 03:53:42;;;;;;;0.10;0.10;;;17.60;99.90;;;;;;5046414;28;20232;-80
2023/06/06 03:56:08;;;;;;;1.50;1.50;;;18.00;99.90;;;;;;5045808;28;20197;-80
2023/06/06 03:58:33;;;;;;;0.10;0.10;;;18.10;99.90;;;;;;5045584;28;20182;-80
2023/06/06 04:00:59;;;;;;;0.10;0.10;;;18.30;99.90;;;;;;5047255;28;20185;-80
2023/06/06 04:03:35;;;;;;;0.10;0.10;;;18.30;99.90;;;;;;5046611;28;20186;-80
2023/06/06 04:06:02;;;;;;;0.10;0.10;;;18.60;99.90;;;;;;5044368;28;20773;-80
2023/06/06 04:08:28;;;;;;;0.10;0.10;;;17.90;99.90;;;;;;5045287;28;20218;-80
2023/06/06 04:10:53;;;;;;;0.10;0.10;;;17.60;99.90;;;;;;5045789;28;20232;-80
2023/06/06 04:13:19;;;;;;;0.10;0.10;;;17.50;99.90;;;;;;5045343;28;20765;-80
2023/06/06 04:15:45;;;;;;;0.10;0.10;;;17.40;99.90;;;;;;5045911;28;20251;-80
2023/06/06 04:18:12;;;;;;;0.10;0.10;;;17.20;99.90;;;;;;5045773;28;20173;-80
2023/06/06 04:20:37;;;;;;;0.10;0.10;;;17.20;99.90;;;;;;5044393;28;20554;-80
2023/06/06 04:23:03;;;;;;;0.10;0.10;;;17.20;99.90;;;;;;5045419;28;20174;-80
2023/06/06 04:25:28;;;;;;;0.23;0.23;;;17.10;99.90;;;;;;5046374;28;20206;-80
2023/06/06 04:27:55;;;;;;;0.10;0.10;;;17.20;99.90;;;;;;5045995;28;20299;-80
2023/06/06 04:30:22;;;;;;;0.10;0.10;;;17.40;99.90;;;;;;5054183;28;20190;-80
2023/06/06 04:32:48;;;;;;;0.10;0.10;;;17.40;99.90;;;;;;5047140;28;20201;-80
2023/06/06 04:35:14;;;;;;;0.10;0.10;;;17.50;99.90;;;;;;5044433;28;20202;-80
2023/06/06 04:37:41;;;;;;;0.10;0.10;;;17.50;99.90;;;;;;5044991;28;20244;-80
2023/06/06 04:40:10;;;;;;;0.10;0.10;;;17.20;99.90;;;;;;5045485;28;20239;-80
2023/06/06 04:42:36;;;;;;;0.10;0.10;;;17.40;99.90;;;;;;5045552;28;20192;-80
2023/06/06 04:45:03;;;;;;;0.10;0.10;;;17.50;99.90;;;;;;5046149;28;20181;-80
2023/06/06 04:47:33;;;;;;;0.10;0.10;;;17.60;99.90;;;;;;5045516;28;20292;-80
2023/06/06 04:49:59;;;;;;;0.10;0.10;;;17.40;99.90;;;;;;5044666;28;20184;-80
2023/06/06 04:52:25;;;;;;;0.10;0.10;;;17.40;99.90;;;;;;5044354;28;20187;-80
2023/06/06 04:54:51;;;;;;;0.10;0.10;;;17.60;99.90;;;;;;5044375;28;20178;-80
2023/06/06 04:57:19;;;;;;;0.10;0.10;;;17.70;99.90;;;;;;5044194;28;20182;-80
2023/06/06 04:59:50;;;;;;;0.10;0.10;;;17.80;99.90;;;;;;5046167;28;20599;-80
2023/06/06 05:02:20;;;;;;;0.10;0.10;;;18.00;99.90;;;;;;5044520;28;20186;-80
2023/06/06 05:04:47;;;;;;;0.10;0.10;;;18.00;99.90;;;;;;5045093;28;20808;-82
2023/06/06 05:07:13;;;;;;;0.10;0.10;;;18.10;99.90;;;;;;5044851;28;20559;-80
2023/06/06 05:09:38;;;;;;;0.10;0.10;;;17.90;99.90;;;;;;5046339;28;20185;-80
2023/06/06 05:12:05;;;;;;;0.10;0.10;;;17.70;99.90;;;;;;5044593;28;20621;-80
2023/06/06 05:14:30;;;;;;;0.10;0.10;;;17.70;99.90;;;;;;5044580;28;20300;-80
2023/06/06 05:16:57;;;;;;;0.10;0.10;;;17.70;99.90;;;;;;5044038;28;20304;-80
2023/06/06 05:19:23;;;;;;;0.10;0.10;;;17.80;99.90;;;;;;5044425;28;20567;-80
2023/06/06 05:21:48;;;;;;;0.10;0.10;;;18.00;99.90;;;;;;5046141;28;20188;-80
2023/06/06 05:24:14;;;;;;;0.10;0.10;;;18.20;99.90;;;;;;5044397;28;20178;-80
2023/06/06 05:26:41;;;;;;;0.10;0.10;;;18.40;99.90;;;;;;5044276;28;20209;-80
2023/06/06 05:29:06;;;;;;;0.10;0.10;;;18.60;99.90;;;;;;5043955;28;20188;-80
2023/06/06 05:31:33;;;;;;;0.10;0.10;;;18.60;99.90;;;;;;5044995;28;20189;-80
2023/06/06 05:33:59;;;;;;;0.10;0.10;;;18.90;99.90;;;;;;5046633;28;20205;-80
2023/06/06 05:36:26;;;;;;;0.10;0.10;;;19.10;99.90;;;;;;5045256;28;20233;-80
2023/06/06 05:38:52;;;;;;;0.10;0.10;;;19.50;99.90;;;;;;5045672;28;20211;-80
2023/06/06 05:41:20;;;;;;;0.10;0.10;;;19.90;99.90;;;;;;5044536;28;20181;-80
2023/06/06 05:43:50;;;;;;;0.10;0.10;;;20.20;99.90;;;;;;5046366;28;20178;-80
2023/06/06 05:46:16;;;;;;;0.10;0.10;;;20.40;99.90;;;;;;5044845;28;20463;-80
2023/06/06 05:48:42;;;;;;;0.10;0.10;;;20.60;99.90;;;;;;5045089;28;20219;-80
2023/06/06 05:51:08;;;;;;;0.10;0.10;;;20.80;99.90;;;;;;5044166;28;20218;-80
2023/06/06 05:53:34;;;;;;;0.10;0.10;;;20.90;99.90;;;;;;5045387;28;20197;-80
2023/06/06 05:55:59;;;;;;;0.10;0.10;;;21.00;99.90;;;;;;5043719;28;20247;-80
2023/06/06 05:58:25;;;;;;;0.10;0.10;;;21.10;99.90;;;;;;5044574;28;20186;-80
2023/06/06 06:00:51;;;;;;;0.10;0.10;;;21.20;99.90;;;;;;5044058;28;20196;-80
2023/06/06 06:03:16;;;;;;;0.10;0.10;;;21.30;99.90;;;;;;5044183;28;20185;-80
2023/06/06 06:05:42;;;;;;;0.10;0.10;;;21.40;99.90;;;;;;5044392;28;20217;-80
2023/06/06 06:08:08;;;;;;;0.10;0.10;;;21.50;99.90;;;;;;5045287;28;20553;-80
2023/06/06 06:10:35;;;;;;;0.10;0.10;;;21.60;99.90;;;;;;5048818;28;20186;-80
2023/06/06 06:13:02;;;;;;;0.10;0.10;;;21.70;99.90;;;;;;5049275;28;20201;-80
2023/06/06 06:15:32;;;;;;;0.10;0.10;;;21.70;99.90;;;;;;5047878;28;20202;-80
2023/06/06 06:17:58;;;;;;;0.10;0.10;;;22.00;99.90;;;;;;5047390;28;20274;-80
2023/06/06 06:20:24;;;;;;;0.10;0.10;;;22.00;99.90;;;;;;5047657;28;21009;-80
2023/06/06 06:22:49;;;;;;;0.10;0.10;;;22.20;99.90;;;;;;5047842;28;20231;-80
2023/06/06 06:25:22;;;;;;;0.10;0.10;;;22.30;99.90;;;;;;5047142;28;20202;-80
2023/06/06 06:27:47;;;;;;;0.10;0.10;;;22.40;99.90;;;;;;5047459;28;21020;-80
2023/06/06 06:30:14;;;;;;;0.10;0.10;;;22.40;99.90;;;;;;5049057;28;20227;-80
2023/06/06 06:32:42;;;;;;;0.10;0.10;;;22.60;99.90;;;;;;5047281;28;20678;-80
2023/06/06 06:35:11;;;;;;;0.10;0.10;;;22.80;99.90;;;;;;5048230;28;20703;-80
2023/06/06 06:37:37;;;;;;;0.10;0.10;;;22.70;99.90;;;;;;5047150;28;20219;-80
2023/06/06 06:40:12;;;;;;;0.10;0.10;;;22.90;99.90;;;;;;5048847;28;20182;-80
2023/06/06 06:42:40;;;;;;;0.10;0.10;;;23.10;99.90;;;;;;5048148;28;20169;-80
2023/06/06 06:45:12;;;;;;;0.10;0.10;;;23.20;99.90;;;;;;5046684;28;20830;-80
2023/06/06 06:47:38;;;;;;;0.10;0.10;;;23.30;99.90;;;;;;5048440;28;20182;-80
2023/06/06 06:50:05;;;;;;;0.10;0.10;;;23.30;99.90;;;;;;5048728;28;20185;-80
2023/06/06 06:52:35;;;;;;;0.10;0.10;;;23.40;99.90;;;;;;5046863;28;20205;-80
2023/06/06 06:55:03;;;;;;;0.10;0.10;;;23.40;99.90;;;;;;5046909;28;20229;-81
2023/06/06 06:57:29;;;;;;;0.10;0.10;;;23.40;99.90;;;;;;5046149;28;20364;-81
2023/06/06 06:59:59;;;;;;;0.10;0.10;;;23.10;99.90;;;;;;5048772;28;20260;-80
2023/06/06 07:02:27;;;;;;;0.10;0.10;;;23.10;99.90;;;;;;5055236;28;20224;-80
2023/06/06 07:04:59;;;;;;;0.10;0.10;;;23.40;99.90;;;;;;5047773;28;20477;-80
2023/06/06 07:07:25;;;;;;;0.10;0.10;;;23.60;99.90;;;;;;5048172;28;20176;-80
2023/06/06 07:09:51;;;;;;;0.10;0.10;;;23.80;99.90;;;;;;5048059;28;20261;-80
2023/06/06 07:12:16;;;;;;;0.10;0.10;;;24.00;99.90;;;;;;5047850;28;20269;-80
2023/06/06 07:14:42;;;;;;;0.10;0.10;;;23.30;99.90;;;;;;5047110;28;20618;-80
2023/06/06 07:17:07;;;;;;;0.10;0.10;;;23.80;99.90;;;;;;5046819;28;20279;-80
2023/06/06 07:19:35;;;;;;;0.10;0.10;;;24.20;99.90;;;;;;5045728;28;20177;-80
2023/06/06 07:22:04;;;;;;;0.10;0.10;;;24.50;99.90;;;;;;5047059;28;20598;-80
2023/06/06 07:24:30;;;;;;;0.10;0.10;;;24.70;99.90;;;;;;5049198;28;20239;-80
2023/06/06 07:26:57;;;;;;;0.10;0.10;;;24.80;99.90;;;;;;5047147;28;20345;-80
2023/06/06 07:29:23;;;;;;;0.10;0.10;;;24.70;99.90;;;;;;5048508;28;20201;-80
2023/06/06 07:31:49;;;;;;;0.10;0.10;;;24.20;99.90;;;;;;5046498;28;20190;-80
2023/06/06 07:34:15;;;;;;;0.10;0.10;;;23.90;99.90;;;;;;5047653;28;20216;-80
2023/06/06 07:36:41;;;;;;;0.10;0.10;;;23.70;99.90;;;;;;5045904;28;20576;-80
2023/06/06 07:39:06;;;;;;;0.10;0.10;;;23.80;99.90;;;;;;5048184;28;20182;-81
2023/06/06 07:41:33;;;;;;;0.10;0.10;;;24.30;99.90;;;;;;5047594;28;20251;-80
2023/06/06 07:43:59;;;;;;;0.10;0.10;;;23.90;99.90;;;;;;5047547;28;20202;-80
2023/06/06 07:46:25;;;;;;;0.10;0.10;;;23.60;99.90;;;;;;5047676;28;20209;-80
2023/06/06 07:48:51;;;;;;;0.10;0.10;;;23.50;99.90;;;;;;5046358;28;20185;-80
2023/06/06 07:51:17;;;;;;;0.10;0.10;;;23.60;99.90;;;;;;5045821;28;20178;-80
2023/06/06 07:53:46;;;;;;;0.10;0.10;;;23.50;99.90;;;;;;5047737;28;20205;-80
2023/06/06 07:56:15;;;;;;;0.10;0.10;;;23.80;99.90;;;;;;5047110;28;20244;-80
2023/06/06 07:58:41;;;;;;;0.10;0.10;;;23.90;99.90;;;;;;5046087;28;20185;-80
2023/06/06 08:01:11;;;;;;;0.10;0.10;;;24.20;99.90;;;;;;5045102;28;20189;-80
2023/06/06 08:03:36;;;;;;;0.10;0.10;;;23.80;99.90;;;;;;5045681;28;20182;-81
2023/06/06 08:06:02;;;;;;;0.10;0.10;;;24.00;99.90;;;;;;5044896;28;20308;-81
2023/06/06 08:08:28;;;;;;;0.10;0.10;;;23.90;99.90;;;;;;5045237;28;20243;-81
2023/06/06 08:10:53;;;;;;;0.10;0.10;;;24.00;99.90;;;;;;5046081;28;20182;-80
2023/06/06 08:13:20;;;;;;;0.10;0.10;;;23.80;99.90;;;;;;5045510;28;20205;-80
2023/06/06 08:15:45;;;;;;;0.10;0.10;;;24.10;99.90;;;;;;5046439;28;20205;-81
2023/06/06 08:18:12;;;;;;;0.10;0.10;;;24.70;99.90;;;;;;5045402;28;20654;-80
2023/06/06 08:20:38;;;;;;;0.10;0.10;;;24.90;99.90;;;;;;5046484;28;20181;-80
2023/06/06 08:23:04;;;;;;;0.10;0.10;;;24.80;99.90;;;;;;5045297;28;20288;-80
2023/06/06 08:25:29;;;;;;;0.10;0.10;;;24.60;99.90;;;;;;5046585;28;20205;-80
2023/06/06 08:27:57;;;;;;;0.10;0.10;;;25.00;99.90;;;;;;5044902;28;20182;-80
2023/06/06 08:30:22;;;;;;;0.10;0.10;;;25.20;99.90;;;;;;5044818;28;20192;-80
2023/06/06 08:32:49;;;;;;;0.10;0.10;;;25.20;99.90;;;;;;5045436;28;20205;-80
2023/06/06 08:35:14;;;;;;;0.10;0.10;;;25.30;99.90;;;;;;5046153;28;20252;-80
2023/06/06 08:37:40;;;;;;;0.10;0.10;;;25.50;99.90;;;;;;5044664;28;20174;-80
2023/06/06 08:40:07;;;;;;;0.10;0.10;;;25.60;99.90;;;;;;5044468;28;20174;-80
2023/06/06 08:42:37;;;;;;;0.10;0.10;;;25.90;99.90;;;;;;5045444;28;20181;-80
2023/06/06 08:45:05;;;;;;;0.10;0.10;;;26.30;99.90;;;;;;5047029;28;20251;-81
2023/06/06 08:47:32;;;;;;;0.10;0.10;;;26.00;99.90;;;;;;5044285;28;20177;-80
2023/06/06 08:49:59;;;;;;;0.10;0.10;;;25.80;99.90;;;;;;5045013;28;20181;-80
2023/06/06 08:52:27;;;;;;;0.10;0.10;;;25.70;99.90;;;;;;5044993;28;20185;-80
2023/06/06 08:54:53;;;;;;;0.10;0.10;;;25.70;99.90;;;;;;5046361;28;20182;-80
2023/06/06 08:57:19;;;;;;;0.10;0.10;;;25.60;99.90;;;;;;5045041;28;20174;-80
2023/06/06 08:59:45;;;;;;;0.10;0.10;;;26.00;99.90;;;;;;5044561;28;20516;-80
2023/06/06 09:02:11;;;;;;;0.10;0.10;;;26.20;99.90;;;;;;5052951;28;20238;-80
2023/06/06 09:04:38;;;;;;;0.10;0.10;;;26.10;99.90;;;;;;5044515;28;20566;-80
2023/06/06 09:07:08;;;;;;;0.10;0.10;;;26.50;99.90;;;;;;5044340;28;20205;-81
2023/06/06 09:09:36;;;;;;;0.10;0.10;;;26.30;99.90;;;;;;5044300;28;20887;-81
2023/06/06 09:12:02;;;;;;;0.10;0.10;;;26.00;99.90;;;;;;5043609;28;20178;-80
2023/06/06 09:14:28;;;;;;;0.10;0.10;;;25.80;99.90;;;;;;5045210;28;20225;-80
2023/06/06 09:16:53;;;;;;;0.10;0.10;;;26.10;99.90;;;;;;5044144;28;20198;-80
2023/06/06 09:19:25;;;;;;;0.10;0.10;;;26.40;99.90;;;;;;5044705;28;20671;-80
2023/06/06 09:21:50;;;;;;;0.10;0.10;;;26.40;99.90;;;;;;5043361;28;20174;-80
2023/06/06 09:24:17;;;;;;;0.10;0.10;;;26.80;99.90;;;;;;5043670;28;20700;-80
2023/06/06 09:26:42;;;;;;;0.10;0.10;;;27.10;99.90;;;;;;5044016;28;20267;-81
2023/06/06 09:29:08;;;;;;;0.10;0.10;;;26.90;99.90;;;;;;5045585;28;20213;-81
2023/06/06 09:31:38;;;;;;;0.10;0.10;;;26.60;99.90;;;;;;5044391;28;20264;-80
2023/06/06 09:34:05;;;;;;;0.10;0.10;;;26.40;99.90;;;;;;5044034;28;20198;-80
2023/06/06 09:36:34;;;;;;;0.10;0.10;;;26.60;99.90;;;;;;5043220;28;21188;-81
2023/06/06 09:39:14;;;;;;;0.10;0.10;;;26.10;99.90;;;;;;5043335;28;20338;-81
2023/06/06 09:41:48;;;;;;;0.10;0.10;;;26.50;99.90;;;;;;5043046;28;20188;-80
2023/06/06 09:44:28;;;;;;;0.10;0.10;;;26.50;99.90;;;;;;5050189;28;20181;-80
2023/06/06 09:46:59;;;;;;;0.10;0.10;;;26.70;99.90;;;;;;5049467;28;20201;-80
2023/06/06 09:49:25;;;;;;;0.10;0.10;;;26.80;99.90;;;;;;5049646;28;20272;-80
2023/06/06 09:51:53;;;;;;;0.10;0.10;;;27.60;99.90;;;;;;5048125;28;20264;-80
2023/06/06 09:54:18;;;;;;;0.10;0.10;;;28.30;99.90;;;;;;5050058;28;20200;-80
2023/06/06 09:56:47;;;;;;;0.10;0.10;;;28.60;99.90;;;;;;5047360;28;20197;-81
2023/06/06 09:59:14;;;;;;;0.10;0.10;;;28.60;99.90;;;;;;5048279;28;20238;-81
2023/06/06 10:01:42;;;;;;;0.10;0.10;;;28.50;99.90;;;;;;5048578;28;20220;-80
2023/06/06 10:04:08;;;;;;;0.10;0.10;;;28.20;99.90;;;;;;5048073;28;20269;-81
2023/06/06 10:06:34;;;;;;;0.10;0.10;;;27.60;99.90;;;;;;5047461;28;20308;-80
2023/06/06 10:09:07;;;;;;;0.10;0.10;;;28.00;99.90;;;;;;5048123;28;20618;-80
2023/06/06 10:11:36;;;;;;;0.10;0.10;;;28.00;99.90;;;;;;5046904;28;20716;-81
2023/06/06 10:14:05;;;;;;;0.10;0.10;;;27.50;99.90;;;;;;5048046;28;21247;-80
2023/06/06 10:16:34;;;;;;;0.10;0.10;;;26.80;99.90;;;;;;5048334;28;20237;-80
2023/06/06 10:19:00;;;;;;;0.10;0.10;;;26.30;99.90;;;;;;5047802;28;20239;-81
2023/06/06 10:21:26;;;;;;;0.10;0.10;;;26.50;99.90;;;;;;5048964;28;20174;-81
2023/06/06 10:23:53;;;;;;;0.10;0.10;;;25.70;99.90;;;;;;5047518;28;20311;-80
2023/06/06 10:26:25;;;;;;;0.10;0.10;;;26.40;99.90;;;;;;5047397;28;20200;-80
2023/06/06 10:29:02;;;;;;;0.10;0.10;;;26.50;99.90;;;;;;5047712;28;20185;-80
2023/06/06 10:31:41;;;;;;;0.10;0.10;;;26.60;99.90;;;;;;5048305;28;20217;-80
2023/06/06 10:34:13;;;;;;;0.10;0.10;;;25.50;99.90;;;;;;5047175;28;20202;-80
2023/06/06 10:36:40;;;;;;;0.10;0.10;;;24.80;99.90;;;;;;5047632;28;20698;-80
2023/06/06 10:39:15;;;;;;;0.20;0.20;;;24.40;99.90;;;;;;5047009;28;20231;-81
2023/06/06 10:41:47;;;;;;;0.10;0.10;;;24.30;99.90;;;;;;5046436;28;20189;-81
2023/06/06 10:44:13;;;;;;;0.10;0.10;;;24.40;99.90;;;;;;5046673;28;20174;-80
2023/06/06 10:46:40;;;;;;;0.10;0.10;;;24.50;99.90;;;;;;5047997;28;20555;-81
2023/06/06 10:49:06;;;;;;;0.10;0.10;;;24.40;99.90;;;;;;5046203;28;20177;-81
2023/06/06 10:51:39;;;;;;;0.30;0.30;;;24.50;99.90;;;;;;5045761;28;20268;-80
2023/06/06 10:54:27;;;;;;;0.10;0.10;;;24.60;99.90;;;;;;5045476;28;20726;-80
2023/06/06 10:56:53;;;;;;;0.10;0.10;;;24.90;99.90;;;;;;5048407;28;20198;-81
2023/06/06 10:59:28;;;;;;;0.10;0.10;;;25.20;99.90;;;;;;5048104;28;20204;-80
2023/06/06 11:01:55;;;;;;;0.10;0.10;;;25.60;99.90;;;;;;5046739;28;20173;-81
2023/06/06 11:04:25;;;;;;;0.10;0.10;;;24.80;99.90;;;;;;5046957;28;20231;-80
2023/06/06 11:06:53;;;;;;;0.10;0.10;;;25.30;99.90;;;;;;5048404;28;20211;-80
2023/06/06 11:09:22;;;;;;;0.10;0.10;;;25.80;99.90;;;;;;5047865;28;20508;-80
2023/06/06 11:12:13;;;;;;;0.10;0.10;;;25.60;99.90;;;;;;5045977;28;20182;-80
2023/06/06 11:14:58;;;;;;;0.10;0.10;;;26.20;99.90;;;;;;5046745;28;20212;-81
2023/06/06 11:17:31;;;;;;;0.10;0.10;;;26.60;99.90;;;;;;5046647;28;20189;-81
2023/06/06 11:19:59;;;;;;;0.10;0.10;;;27.10;99.90;;;;;;5047858;28;20642;-80
2023/06/06 11:22:25;;;;;;;0.10;0.10;;;27.30;99.90;;;;;;5048803;28;20182;-80
2023/06/06 11:24:51;;;;;;;0.10;0.10;;;27.60;99.90;;;;;;5048594;28;20174;-81
2023/06/06 11:27:17;;;;;;;0.10;0.10;;;27.40;99.90;;;;;;5046280;28;20567;-80
2023/06/06 11:29:45;;;;;;;0.10;0.10;;;27.50;99.90;;;;;;5046153;28;20188;-80
2023/06/06 11:32:12;;;;;;;0.10;0.10;;;28.10;99.90;;;;;;5046003;28;20593;-80
2023/06/06 11:34:38;;;;;;;0.10;0.10;;;28.30;99.90;;;;;;5046236;28;20209;-80
2023/06/06 11:37:06;;;;;;;0.10;0.10;;;28.20;99.90;;;;;;5046094;28;20682;-81
2023/06/06 11:39:31;;;;;;;0.10;0.10;;;28.80;99.90;;;;;;5045340;28;20188;-80
2023/06/06 11:41:57;;;;;;;0.10;0.10;;;28.70;99.90;;;;;;5045844;28;20209;-81
2023/06/06 11:44:31;;;;;;;0.10;0.10;;;27.90;99.90;;;;;;5046189;28;20687;-80
2023/06/06 11:46:57;;;;;;;0.10;0.10;;;27.50;99.90;;;;;;5045358;28;20297;-80
2023/06/06 11:49:23;;;;;;;0.10;0.10;;;26.50;99.90;;;;;;5046041;28;20335;-81
2023/06/06 11:51:58;;;;;;;0.10;0.10;;;26.60;99.90;;;;;;5046802;28;20180;-80
2023/06/06 11:54:26;;;;;;;0.10;0.10;;;27.10;99.90;;;;;;5045729;28;20689;-81
2023/06/06 11:56:52;;;;;;;0.10;0.10;;;27.20;99.90;;;;;;5045598;28;20288;-80
2023/06/06 11:59:19;;;;;;;0.10;0.10;;;26.90;99.90;;;;;;5047758;28;20182;-81
2023/06/06 12:01:53;;;;;;;0.10;0.10;;;27.10;99.90;;;;;;5047355;28;20682;-81
2023/06/06 12:04:22;;;;;;;0.10;0.10;;;27.20;99.90;;;;;;5047785;28;20331;-80
2023/06/06 12:06:53;;;;;;;0.10;0.10;;;27.40;99.90;;;;;;5046267;28;20210;-80
2023/06/06 12:09:20;;;;;;;0.10;0.10;;;27.50;99.90;;;;;;5048706;28;20227;-81
2023/06/06 12:12:05;;;;;;;0.10;0.10;;;26.80;99.90;;;;;;5046520;28;20559;-80
2023/06/06 12:14:33;;;;;;;0.10;0.10;;;26.50;99.90;;;;;;5046846;28;20200;-80
2023/06/06 12:17:06;;;;;;;0.10;0.10;;;26.30;99.90;;;;;;5046416;28;20198;-80
2023/06/06 12:19:33;;;;;;;0.10;0.10;;;26.20;99.90;;;;;;5044726;28;20181;-80
2023/06/06 12:21:59;;;;;;;0.10;0.10;;;26.50;99.90;;;;;;5045714;28;20173;-80
2023/06/06 12:24:26;;;;;;;0.10;0.10;;;27.10;99.90;;;;;;5044774;28;20749;-80
2023/06/06 12:26:55;;;;;;;0.10;0.10;;;27.30;99.90;;;;;;5046258;28;20208;-80
2023/06/06 12:29:30;;;;;;;0.10;0.10;;;27.10;99.90;;;;;;5046439;28;20182;-80
2023/06/06 12:32:21;;;;;;;0.10;0.10;;;27.50;99.90;;;;;;5046783;28;20181;-80
2023/06/06 12:34:48;;;;;;;0.10;0.10;;;26.70;99.90;;;;;;5047181;28;20743;-80
2023/06/06 12:37:15;;;;;;;0.10;0.10;;;26.70;99.90;;;;;;5045325;28;20197;-80
2023/06/06 12:39:42;;;;;;;0.10;0.10;;;26.80;99.90;;;;;;5044812;28;20184;-80
2023/06/06 12:42:15;;;;;;;0.10;0.10;;;26.90;99.90;;;;;;5044447;28;20319;-80
2023/06/06 12:44:41;;;;;;;0.10;0.10;;;27.50;99.90;;;;;;5046446;28;20181;-80
2023/06/06 12:47:07;;;;;;;0.10;0.10;;;27.60;99.90;;;;;;5045273;28;20216;-80
2023/06/06 12:49:36;;;;;;;0.10;0.10;;;27.10;99.90;;;;;;5046507;28;20186;-80